Главная страница
METAR-TAF:

METAR-TAF

Аэропорты :

Нуакшот, Мавритания

широта: 18-18-36N, долгота: 015-58-11W, высота над уровнем моря: 3 м

Текущие метеонаблюдения

Эта сводка был подготовлена 41 минут назад, в 12:00 UTC
Ветер 8 Узел от восточно-юго-восточный, изменяющийся между восточно-северо-восточный и юго-юго-восточный
Температура 35°C
Влажность 25%
Давление 1012 hPa
Видимость: 8000 м

METAR: GQNO 211200Z 11008KT 070V150 8000 NSC 35/12 Q1012 NOSIG

Время: 12:41 (12:41 UTC)

Прогноз

Эта сводка был подготовлена 1 час и 41 минут назад, в 11:00 UTC
Прогноз действительный с 21-го 12 UTC до 22-го 18 UTC
Ветер 12 Узел от восточный
Видимость: 7000 м
изменения
С 21-го 15 UTC до 21-го 18 UTC
Ветер 10 Узел от северный
изменения
С 22-го 06 UTC до 22-го 08 UTC
Ветер 12 Узел от восточно-северо-восточный

TAF: GQNO 211100Z 2112/2218 08012KT 7000 NSC BECMG 2115/2118 35010KT BECMG 2206/2208 06012KT

Метеонаблюдения и прогнозы для более 4000 аэропортов (сводки METAR и TAF).

Имеющиеся станции представлены на карте желтыми и красными точками.

Чтобы увидеть название станции, наведите на нее мышь.

Затем щелкните, чтобы увидеть метеонаблюдения и метеопрогнозы.

Управление картой: чтобы увеличить масштаб, щелкните зеленые кнопки с черным крестиком; чтобы уменьшить масштаб, щелкните зеленую кнопку с тире; для просмотра соседних карт щелкайте зеленые стрелки.


METAR-TAF: